Detalii statie CORIPLANT MIHALT [0000197B]

Toti senzorii

Date Temperatura solului [C]Precipitatii [mm]Voltaj baterie [mV]Leaf Wetness [Min]HC Air temperature [C]HC Relative humidity [%]Punctul de roua [C]
medieminmaxsumaultimatimpmedieminmaxmediemediemin
2019-10-19 23:00:00 0 6826 9.38 8.95 9.95 100 9.3 8.9
2019-10-20 00:00:00 0 6806 8.83 8.44 9.26 100 8.7 8.4
2019-10-20 01:00:00 0 6796 8 7.6 8.49 100 7.9 7.6
2019-10-20 02:00:00 0 6796 7.47 7.21 7.72 100 7.4 7.2
2019-10-20 03:00:00 0 6776 7.02 6.5 7.88 100 6.9 6.5
2019-10-20 04:00:00 0 6786 6.35 6.12 6.6 100 6.3 6.1
2019-10-20 05:00:00 0 6766 5.65 5.18 6.11 100 5.6 5.1
2019-10-20 06:00:00 0 6756 5.5 5.27 5.72 100 5.4 5.2
2019-10-20 07:00:00 0 6756 5.11 4.78 5.52 100 5 4.7
2019-10-20 08:00:00 0 6816 5.53 5.09 5.97 100 5.4 5
2019-10-20 09:00:00 0 6992 7.61 6.25 9.85 100 7.5 6.2
2019-10-20 10:00:00 0 7080 12.18 10.4 13.63 100 12.1 10.4
2019-10-20 11:00:00 0 7060 17.43 14.3 20.15 100 17.3 14.3
2019-10-20 12:00:00 0 7138 22.08 20.86 23.7 90.05 20.2 19.7
2019-10-20 13:00:00 0 7176 24.32 23 25.74 79.43 20.3 19.4
2019-10-20 14:00:00 0 7176 26.81 24.32 27.84 74.12 21.6 19.6
2019-10-20 15:00:00 0 7166 27.78 27.4 28.25 73.89 22.5 21.9
2019-10-20 16:00:00 0 7166 27.49 26.89 28.11 73.72 22.2 21.2
2019-10-20 17:00:00 0 6972 24.45 21.9 27 78.02 20.2 19.3
2019-10-20 18:00:00 0 6844 18.78 17.13 21.38 90.75 17 15.8
2019-10-20 19:00:00 0 6826 15.95 15.32 16.66 96.55 15.3 15
2019-10-20 20:00:00 0 6816 13.62 12.92 15.38 99.94 13.5 12.9
2019-10-20 21:00:00 0 6796 11.93 11.36 12.75 100 11.8 11.3
2019-10-20 22:00:00 0 6776 10.52 9.96 11.24 100 10.4 9.9
2019-10-20 23:00:00 0 6756 9.41 8.87 9.9 100 9.3 8.8
2019-10-21 00:00:00 0 6766 8.09 7.41 8.72 100 8 7.4
2019-10-21 01:00:00 0 6766 7.54 7.23 8.01 100 7.4 7.2
2019-10-21 02:00:00 0 6748 6.38 6.04 6.97 100 6.3 6
2019-10-21 03:00:00 0 6748 6.21 5.98 6.4 100 6.1 5.9
2019-10-21 04:00:00 0 6738 5.66 5.18 5.95 100 5.6 5.1
2019-10-21 05:00:00 0 6738 5.11 4.89 5.28 100 5 4.8
2019-10-21 06:00:00 0 6738 4.62 4.16 4.92 100 4.5 4.1
2019-10-21 07:00:00 0 6738 3.85 3.61 4.12 100 3.8 3.6
2019-10-21 08:00:00 0 6786 4.22 3.64 5.08 100 4.1 3.6
2019-10-21 09:00:00 0 6972 6.41 5.28 8.23 100 6.3 5.2
2019-10-21 10:00:00 0 7030 11.58 9.31 13.88 100 11.5 9.3
2019-10-21 11:00:00 0 7030 17.75 14.44 20.95 99.38 17.6 14.4
2019-10-21 12:00:00 0 7108 21.77 21.01 22.8 86.92 19.3 18.7
2019-10-21 13:00:00 0 7176 23.64 22.19 25.03 80.95 20 19.1
2019-10-21 14:00:00 0 7176 26.39 23.68 28.37 77.87 22 20.1
2019-10-21 15:00:00 0 7166 28.97 28.41 29.64 72.16 23.2 22.4